Terminal Aerodrome Forecast
Issued by NWS

Home | Current Version | Previous Version | Text Only | Print | Product List | Glossary On
Versions: 1 2 3 4 5 6 7 8 9 10 11 12 13 14 15 16 17 18 19 20 21 22 23 24 25 26 27 28 29 30 31
000
FTUS43 KDLH 282326
TAFHIB
TAF
KHIB 282326Z 2900/2924 19010G18KT P6SM VCSH SCT050
      TEMPO 2900/2902 5SM -TSRA OVC050CB
     FM290200 22006KT P6SM SCT040
      TEMPO 2911/2914 2SM BR SCT004
     FM291500 26006KT P6SM SKC=

USA.gov is the U.S. government's official web portal to all federal, state and local government web resources and services.